<?xml version="1.0" encoding="UTF-8" standalone="no" ?>
<gpx xmlns="http://www.topografix.com/GPX/1/1" xmlns:xsi="http://www.w3.org/2001/XMLSchema-instance" xsi:schemaLocation="http://www.topografix.com/GPX/1/1 http://www.topografix.com/GPX/1/1/gpx.xsd" version="1.1" creator="VisuGPX - https://www.visugpx.com">
  <metadata>
    <name>15478826-UPDA Le Guerno PT R/5</name>
  </metadata>
  <trk>
    <name><![CDATA[15478826-UPDA Le Guerno PT R/5]]></name>
    <trkseg>
      <trkpt lat="47.58502" lon="-2.41303">
        <ele>72</ele>
        <time>2022-09-23T13:35:46Z</time>
      </trkpt>
      <trkpt lat="47.58558" lon="-2.41462">
        <ele>73</ele>
        <time>2022-09-23T13:38:27Z</time>
      </trkpt>
      <trkpt lat="47.58566" lon="-2.41499">
        <ele>73</ele>
        <time>2022-09-23T13:39:02Z</time>
      </trkpt>
      <trkpt lat="47.58576" lon="-2.41555">
        <ele>71</ele>
        <time>2022-09-23T13:39:55Z</time>
      </trkpt>
      <trkpt lat="47.58584" lon="-2.4163">
        <ele>70</ele>
        <time>2022-09-23T13:41:03Z</time>
      </trkpt>
      <trkpt lat="47.58587" lon="-2.41639">
        <ele>70</ele>
        <time>2022-09-23T13:41:12Z</time>
      </trkpt>
      <trkpt lat="47.58588" lon="-2.4167">
        <ele>70</ele>
        <time>2022-09-23T13:41:40Z</time>
      </trkpt>
      <trkpt lat="47.58587" lon="-2.41677">
        <ele>70</ele>
        <time>2022-09-23T13:41:46Z</time>
      </trkpt>
      <trkpt lat="47.58584" lon="-2.41695">
        <ele>70</ele>
        <time>2022-09-23T13:42:03Z</time>
      </trkpt>
      <trkpt lat="47.58579" lon="-2.41708">
        <ele>70</ele>
        <time>2022-09-23T13:42:16Z</time>
      </trkpt>
      <trkpt lat="47.58561" lon="-2.41721">
        <ele>69</ele>
        <time>2022-09-23T13:42:43Z</time>
      </trkpt>
      <trkpt lat="47.58539" lon="-2.41725">
        <ele>70</ele>
        <time>2022-09-23T13:43:13Z</time>
      </trkpt>
      <trkpt lat="47.58414" lon="-2.4171">
        <ele>67</ele>
        <time>2022-09-23T13:46:00Z</time>
      </trkpt>
      <trkpt lat="47.5836" lon="-2.41714">
        <ele>67</ele>
        <time>2022-09-23T13:47:12Z</time>
      </trkpt>
      <trkpt lat="47.58317" lon="-2.41706">
        <ele>66</ele>
        <time>2022-09-23T13:48:10Z</time>
      </trkpt>
      <trkpt lat="47.58262" lon="-2.41688">
        <ele>65</ele>
        <time>2022-09-23T13:49:25Z</time>
      </trkpt>
      <trkpt lat="47.58259" lon="-2.416">
        <ele>65</ele>
        <time>2022-09-23T13:50:45Z</time>
      </trkpt>
      <trkpt lat="47.5821" lon="-2.41636">
        <ele>65</ele>
        <time>2022-09-23T13:51:58Z</time>
      </trkpt>
      <trkpt lat="47.58176" lon="-2.4165">
        <ele>66</ele>
        <time>2022-09-23T13:52:45Z</time>
      </trkpt>
      <trkpt lat="47.5815" lon="-2.41669">
        <ele>66</ele>
        <time>2022-09-23T13:53:23Z</time>
      </trkpt>
      <trkpt lat="47.58121" lon="-2.41704">
        <ele>65</ele>
        <time>2022-09-23T13:54:13Z</time>
      </trkpt>
      <trkpt lat="47.58093" lon="-2.41715">
        <ele>65</ele>
        <time>2022-09-23T13:54:52Z</time>
      </trkpt>
      <trkpt lat="47.58063" lon="-2.4172">
        <ele>65</ele>
        <time>2022-09-23T13:55:32Z</time>
      </trkpt>
      <trkpt lat="47.57993" lon="-2.41739">
        <ele>65</ele>
        <time>2022-09-23T13:57:07Z</time>
      </trkpt>
      <trkpt lat="47.5798" lon="-2.41749">
        <ele>64</ele>
        <time>2022-09-23T13:57:27Z</time>
      </trkpt>
      <trkpt lat="47.5796" lon="-2.41765">
        <ele>63</ele>
        <time>2022-09-23T13:57:57Z</time>
      </trkpt>
      <trkpt lat="47.57952" lon="-2.41764">
        <ele>62</ele>
        <time>2022-09-23T13:58:08Z</time>
      </trkpt>
      <trkpt lat="47.57936" lon="-2.41747">
        <ele>62</ele>
        <time>2022-09-23T13:58:34Z</time>
      </trkpt>
      <trkpt lat="47.57928" lon="-2.41738">
        <ele>61</ele>
        <time>2022-09-23T13:58:47Z</time>
      </trkpt>
      <trkpt lat="47.57926" lon="-2.4173">
        <ele>61</ele>
        <time>2022-09-23T13:58:55Z</time>
      </trkpt>
      <trkpt lat="47.57917" lon="-2.41536">
        <ele>60</ele>
        <time>2022-09-23T14:01:50Z</time>
      </trkpt>
      <trkpt lat="47.57919" lon="-2.41437">
        <ele>62</ele>
        <time>2022-09-23T14:03:19Z</time>
      </trkpt>
      <trkpt lat="47.57916" lon="-2.4142">
        <ele>62</ele>
        <time>2022-09-23T14:03:35Z</time>
      </trkpt>
      <trkpt lat="47.58053" lon="-2.41357">
        <ele>67</ele>
        <time>2022-09-23T14:06:47Z</time>
      </trkpt>
      <trkpt lat="47.58055" lon="-2.41286">
        <ele>67</ele>
        <time>2022-09-23T14:07:50Z</time>
      </trkpt>
      <trkpt lat="47.58068" lon="-2.41047">
        <ele>69</ele>
        <time>2022-09-23T14:11:26Z</time>
      </trkpt>
      <trkpt lat="47.58176" lon="-2.40998">
        <ele>70</ele>
        <time>2022-09-23T14:13:57Z</time>
      </trkpt>
      <trkpt lat="47.58176" lon="-2.40968">
        <ele>70</ele>
        <time>2022-09-23T14:14:24Z</time>
      </trkpt>
      <trkpt lat="47.58147" lon="-2.40895">
        <ele>68</ele>
        <time>2022-09-23T14:15:40Z</time>
      </trkpt>
      <trkpt lat="47.58146" lon="-2.40886">
        <ele>68</ele>
        <time>2022-09-23T14:15:49Z</time>
      </trkpt>
      <trkpt lat="47.58145" lon="-2.40873">
        <ele>68</ele>
        <time>2022-09-23T14:16:00Z</time>
      </trkpt>
      <trkpt lat="47.58156" lon="-2.40838">
        <ele>68</ele>
        <time>2022-09-23T14:16:35Z</time>
      </trkpt>
      <trkpt lat="47.58152" lon="-2.40803">
        <ele>67</ele>
        <time>2022-09-23T14:17:07Z</time>
      </trkpt>
      <trkpt lat="47.58164" lon="-2.40797">
        <ele>67</ele>
        <time>2022-09-23T14:17:24Z</time>
      </trkpt>
      <trkpt lat="47.58166" lon="-2.4079">
        <ele>67</ele>
        <time>2022-09-23T14:17:31Z</time>
      </trkpt>
      <trkpt lat="47.58161" lon="-2.40749">
        <ele>66</ele>
        <time>2022-09-23T14:18:08Z</time>
      </trkpt>
      <trkpt lat="47.58163" lon="-2.40741">
        <ele>66</ele>
        <time>2022-09-23T14:18:16Z</time>
      </trkpt>
      <trkpt lat="47.58208" lon="-2.40728">
        <ele>67</ele>
        <time>2022-09-23T14:19:17Z</time>
      </trkpt>
      <trkpt lat="47.58241" lon="-2.40719">
        <ele>67</ele>
        <time>2022-09-23T14:20:02Z</time>
      </trkpt>
      <trkpt lat="47.58266" lon="-2.4072">
        <ele>67</ele>
        <time>2022-09-23T14:20:35Z</time>
      </trkpt>
      <trkpt lat="47.58292" lon="-2.40718">
        <ele>66</ele>
        <time>2022-09-23T14:21:10Z</time>
      </trkpt>
      <trkpt lat="47.58301" lon="-2.40696">
        <ele>66</ele>
        <time>2022-09-23T14:21:33Z</time>
      </trkpt>
      <trkpt lat="47.58292" lon="-2.40676">
        <ele>66</ele>
        <time>2022-09-23T14:21:55Z</time>
      </trkpt>
      <trkpt lat="47.5828" lon="-2.40657">
        <ele>66</ele>
        <time>2022-09-23T14:22:18Z</time>
      </trkpt>
      <trkpt lat="47.58268" lon="-2.40631">
        <ele>67</ele>
        <time>2022-09-23T14:22:47Z</time>
      </trkpt>
      <trkpt lat="47.58261" lon="-2.40606">
        <ele>67</ele>
        <time>2022-09-23T14:23:11Z</time>
      </trkpt>
      <trkpt lat="47.5826" lon="-2.40602">
        <ele>67</ele>
        <time>2022-09-23T14:23:15Z</time>
      </trkpt>
      <trkpt lat="47.58264" lon="-2.40596">
        <ele>67</ele>
        <time>2022-09-23T14:23:22Z</time>
      </trkpt>
      <trkpt lat="47.5826" lon="-2.40582">
        <ele>67</ele>
        <time>2022-09-23T14:23:36Z</time>
      </trkpt>
      <trkpt lat="47.58264" lon="-2.40596">
        <ele>67</ele>
        <time>2022-09-23T14:23:50Z</time>
      </trkpt>
      <trkpt lat="47.58268" lon="-2.40597">
        <ele>67</ele>
        <time>2022-09-23T14:23:55Z</time>
      </trkpt>
      <trkpt lat="47.58276" lon="-2.4059">
        <ele>66</ele>
        <time>2022-09-23T14:24:08Z</time>
      </trkpt>
      <trkpt lat="47.58308" lon="-2.40552">
        <ele>66</ele>
        <time>2022-09-23T14:25:02Z</time>
      </trkpt>
      <trkpt lat="47.58321" lon="-2.40511">
        <ele>66</ele>
        <time>2022-09-23T14:25:43Z</time>
      </trkpt>
      <trkpt lat="47.58323" lon="-2.40495">
        <ele>66</ele>
        <time>2022-09-23T14:25:58Z</time>
      </trkpt>
      <trkpt lat="47.58331" lon="-2.40423">
        <ele>66</ele>
        <time>2022-09-23T14:27:03Z</time>
      </trkpt>
      <trkpt lat="47.5834" lon="-2.40396">
        <ele>66</ele>
        <time>2022-09-23T14:27:31Z</time>
      </trkpt>
      <trkpt lat="47.5835" lon="-2.40375">
        <ele>65</ele>
        <time>2022-09-23T14:27:54Z</time>
      </trkpt>
      <trkpt lat="47.58359" lon="-2.40326">
        <ele>65</ele>
        <time>2022-09-23T14:28:39Z</time>
      </trkpt>
      <trkpt lat="47.58362" lon="-2.40273">
        <ele>64</ele>
        <time>2022-09-23T14:29:27Z</time>
      </trkpt>
      <trkpt lat="47.58372" lon="-2.40246">
        <ele>63</ele>
        <time>2022-09-23T14:29:55Z</time>
      </trkpt>
      <trkpt lat="47.58387" lon="-2.40237">
        <ele>64</ele>
        <time>2022-09-23T14:30:17Z</time>
      </trkpt>
      <trkpt lat="47.58397" lon="-2.40249">
        <ele>64</ele>
        <time>2022-09-23T14:30:34Z</time>
      </trkpt>
      <trkpt lat="47.58418" lon="-2.4033">
        <ele>66</ele>
        <time>2022-09-23T14:31:52Z</time>
      </trkpt>
      <trkpt lat="47.58434" lon="-2.40365">
        <ele>65</ele>
        <time>2022-09-23T14:32:30Z</time>
      </trkpt>
      <trkpt lat="47.58451" lon="-2.40397">
        <ele>64</ele>
        <time>2022-09-23T14:33:07Z</time>
      </trkpt>
      <trkpt lat="47.58472" lon="-2.40423">
        <ele>64</ele>
        <time>2022-09-23T14:33:43Z</time>
      </trkpt>
      <trkpt lat="47.58473" lon="-2.40444">
        <ele>65</ele>
        <time>2022-09-23T14:34:02Z</time>
      </trkpt>
      <trkpt lat="47.58483" lon="-2.40454">
        <ele>65</ele>
        <time>2022-09-23T14:34:18Z</time>
      </trkpt>
      <trkpt lat="47.58496" lon="-2.40462">
        <ele>66</ele>
        <time>2022-09-23T14:34:37Z</time>
      </trkpt>
      <trkpt lat="47.585" lon="-2.40476">
        <ele>66</ele>
        <time>2022-09-23T14:34:51Z</time>
      </trkpt>
      <trkpt lat="47.58498" lon="-2.40504">
        <ele>67</ele>
        <time>2022-09-23T14:35:16Z</time>
      </trkpt>
      <trkpt lat="47.58493" lon="-2.40527">
        <ele>67</ele>
        <time>2022-09-23T14:35:38Z</time>
      </trkpt>
      <trkpt lat="47.58481" lon="-2.40543">
        <ele>67</ele>
        <time>2022-09-23T14:35:59Z</time>
      </trkpt>
      <trkpt lat="47.58476" lon="-2.40582">
        <ele>66</ele>
        <time>2022-09-23T14:36:35Z</time>
      </trkpt>
      <trkpt lat="47.58482" lon="-2.4058">
        <ele>67</ele>
        <time>2022-09-23T14:36:43Z</time>
      </trkpt>
      <trkpt lat="47.5849" lon="-2.40581">
        <ele>67</ele>
        <time>2022-09-23T14:36:54Z</time>
      </trkpt>
      <trkpt lat="47.58494" lon="-2.40584">
        <ele>67</ele>
        <time>2022-09-23T14:37:00Z</time>
      </trkpt>
      <trkpt lat="47.58519" lon="-2.40617">
        <ele>68</ele>
        <time>2022-09-23T14:37:45Z</time>
      </trkpt>
      <trkpt lat="47.58531" lon="-2.40625">
        <ele>69</ele>
        <time>2022-09-23T14:38:02Z</time>
      </trkpt>
      <trkpt lat="47.5854" lon="-2.40632">
        <ele>69</ele>
        <time>2022-09-23T14:38:16Z</time>
      </trkpt>
      <trkpt lat="47.58515" lon="-2.40684">
        <ele>69</ele>
        <time>2022-09-23T14:39:13Z</time>
      </trkpt>
      <trkpt lat="47.5849" lon="-2.40713">
        <ele>68</ele>
        <time>2022-09-23T14:39:55Z</time>
      </trkpt>
      <trkpt lat="47.58494" lon="-2.4072">
        <ele>68</ele>
        <time>2022-09-23T14:40:04Z</time>
      </trkpt>
      <trkpt lat="47.5849" lon="-2.4077">
        <ele>69</ele>
        <time>2022-09-23T14:40:49Z</time>
      </trkpt>
      <trkpt lat="47.58576" lon="-2.40779">
        <ele>73</ele>
        <time>2022-09-23T14:42:44Z</time>
      </trkpt>
      <trkpt lat="47.58632" lon="-2.40798">
        <ele>74</ele>
        <time>2022-09-23T14:44:01Z</time>
      </trkpt>
      <trkpt lat="47.58737" lon="-2.40878">
        <ele>75</ele>
        <time>2022-09-23T14:46:38Z</time>
      </trkpt>
      <trkpt lat="47.58741" lon="-2.40891">
        <ele>76</ele>
        <time>2022-09-23T14:46:51Z</time>
      </trkpt>
      <trkpt lat="47.58774" lon="-2.40996">
        <ele>78</ele>
        <time>2022-09-23T14:48:35Z</time>
      </trkpt>
      <trkpt lat="47.58775" lon="-2.41009">
        <ele>78</ele>
        <time>2022-09-23T14:48:47Z</time>
      </trkpt>
      <trkpt lat="47.58773" lon="-2.41022">
        <ele>78</ele>
        <time>2022-09-23T14:48:59Z</time>
      </trkpt>
      <trkpt lat="47.58757" lon="-2.41062">
        <ele>78</ele>
        <time>2022-09-23T14:49:41Z</time>
      </trkpt>
      <trkpt lat="47.58749" lon="-2.41076">
        <ele>78</ele>
        <time>2022-09-23T14:49:58Z</time>
      </trkpt>
      <trkpt lat="47.58624" lon="-2.41202">
        <ele>76</ele>
        <time>2022-09-23T14:53:19Z</time>
      </trkpt>
      <trkpt lat="47.58502" lon="-2.41304">
        <ele>72</ele>
        <time>2022-09-23T14:56:26Z</time>
      </trkpt>
      <trkpt lat="47.58502" lon="-2.41303">
        <ele>72</ele>
        <time>2022-09-23T14:56:27Z</time>
      </trkpt>
    </trkseg>
  </trk>
</gpx>